Time;durP1;ratioP1;P1;durP2;ratioP2;P2;SDS_P1;SDS_P2;PMS_P1;PMS_P2;Temp;Humidity;BMP_temperature;BMP_pressure;BME280_temperature;BME280_humidity;BME280_pressure;Samples;Min_cycle;Max_cycle;Signal;HPM_P1;HPM_P2
2023/08/08 00:00:14;;;;;;;3.10;1.20;;;14.80;92.40;;;;;;4985562;28;20057;-65
2023/08/08 00:02:40;;;;;;;5.67;0.87;;;14.90;92.00;;;;;;4982102;28;20053;-68
2023/08/08 00:05:06;;;;;;;1.37;0.80;;;14.90;92.60;;;;;;4974167;28;20027;-69
2023/08/08 00:07:32;;;;;;;1.17;0.73;;;14.70;92.80;;;;;;4986700;28;20545;-68
2023/08/08 00:09:57;;;;;;;6.73;0.97;;;14.50;93.10;;;;;;4980108;28;20269;-65
2023/08/08 00:12:23;;;;;;;1.33;0.90;;;14.60;93.40;;;;;;4975396;28;20050;-65
2023/08/08 00:14:49;;;;;;;4.15;0.77;;;14.50;93.40;;;;;;4984221;28;20030;-66
2023/08/08 00:17:14;;;;;;;1.40;1.00;;;14.50;93.60;;;;;;4982804;28;20030;-65
2023/08/08 00:19:40;;;;;;;3.20;1.10;;;14.50;93.70;;;;;;4978118;28;20030;-66
2023/08/08 00:22:06;;;;;;;2.83;1.23;;;14.50;93.90;;;;;;4979683;28;20397;-66
2023/08/08 00:24:32;;;;;;;2.60;1.13;;;14.30;94.40;;;;;;4986175;28;20031;-66
2023/08/08 00:26:57;;;;;;;1.50;1.07;;;14.30;94.70;;;;;;4991015;28;20023;-65
2023/08/08 00:29:23;;;;;;;3.10;0.93;;;14.30;94.60;;;;;;4981994;28;20031;-69
2023/08/08 00:31:48;;;;;;;5.00;1.07;;;14.30;94.90;;;;;;4982847;28;20114;-67
2023/08/08 00:34:14;;;;;;;2.87;1.23;;;14.30;95.20;;;;;;4981948;28;20466;-68
2023/08/08 00:36:40;;;;;;;3.43;1.10;;;14.30;95.40;;;;;;4982083;28;20035;-68
2023/08/08 00:39:05;;;;;;;2.50;1.03;;;14.40;95.90;;;;;;4983676;28;20026;-66
2023/08/08 00:41:31;;;;;;;3.37;1.33;;;14.30;95.70;;;;;;4982017;28;20034;-65
2023/08/08 00:43:57;;;;;;;4.17;1.50;;;14.30;96.50;;;;;;4979955;28;20764;-66
2023/08/08 00:46:24;;;;;;;3.70;1.20;;;14.10;97.20;;;;;;4975669;28;20030;-66
2023/08/08 00:48:52;;;;;;;1.90;1.20;;;14.00;96.60;;;;;;4981237;28;20030;-66
2023/08/08 00:51:19;;;;;;;1.83;1.20;;;13.90;97.10;;;;;;4979364;28;20128;-66
2023/08/08 00:53:45;;;;;;;3.13;1.20;;;13.70;98.00;;;;;;4973329;28;20039;-66
2023/08/08 00:56:15;;;;;;;3.28;1.73;;;13.70;98.20;;;;;;4980642;28;20054;-65
2023/08/08 00:58:40;;;;;;;1.67;1.17;;;13.60;98.90;;;;;;4980222;28;20058;-66
2023/08/08 01:01:06;;;;;;;4.07;1.20;;;13.40;99.50;;;;;;4977727;28;20073;-67
2023/08/08 01:03:32;;;;;;;3.92;1.38;;;13.40;99.90;;;;;;4981739;28;20180;-66
2023/08/08 01:06:08;;;;;;;2.50;1.00;;;13.40;99.90;;;;;;4982258;28;20023;-66
2023/08/08 01:08:50;;;;;;;2.08;1.35;;;13.40;99.90;;;;;;4978991;28;20057;-69
2023/08/08 01:11:17;;;;;;;3.15;1.20;;;13.40;99.90;;;;;;4981950;28;20053;-66
2023/08/08 01:13:43;;;;;;;2.20;1.25;;;13.40;99.90;;;;;;4981005;28;20054;-66
2023/08/08 01:16:09;;;;;;;4.00;1.30;;;13.30;99.90;;;;;;4981623;28;20785;-66
2023/08/08 01:18:36;;;;;;;1.85;1.15;;;13.40;99.90;;;;;;4980308;28;20092;-66
2023/08/08 01:21:03;;;;;;;2.45;1.00;;;13.20;99.90;;;;;;4978529;28;20085;-66
2023/08/08 01:23:30;;;;;;;1.08;0.88;;;13.20;99.90;;;;;;4976892;28;20041;-68
2023/08/08 01:25:57;;;;;;;1.73;0.98;;;13.30;99.90;;;;;;4984885;28;20038;-66
2023/08/08 01:28:23;;;;;;;1.95;1.05;;;13.20;99.90;;;;;;4976311;28;20114;-65
2023/08/08 01:30:50;;;;;;;3.53;1.25;;;13.20;99.90;;;;;;4976809;28;20129;-66
2023/08/08 01:33:15;;;;;;;2.35;1.15;;;13.10;99.90;;;;;;4983488;28;20046;-66
2023/08/08 01:35:46;;;;;;;4.07;1.20;;;13.00;99.90;;;;;;4981679;28;20085;-66
2023/08/08 01:38:33;;;;;;;3.08;1.13;;;13.00;99.90;;;;;;4979750;28;20037;-66
2023/08/08 01:40:59;;;;;;;5.80;1.58;;;13.00;99.90;;;;;;4974133;28;20029;-68
2023/08/08 01:43:26;;;;;;;1.83;1.05;;;13.00;99.90;;;;;;4978885;28;20060;-66
2023/08/08 01:45:53;;;;;;;3.47;1.30;;;13.00;99.90;;;;;;4980770;28;20147;-68
2023/08/08 01:48:18;;;;;;;2.00;1.17;;;13.00;99.90;;;;;;4981261;28;20034;-68
2023/08/08 01:50:44;;;;;;;3.67;1.30;;;12.80;99.90;;;;;;4981708;28;20029;-67
2023/08/08 01:53:10;;;;;;;2.90;0.97;;;12.80;99.90;;;;;;4979106;28;20053;-68
2023/08/08 01:55:36;;;;;;;1.30;1.00;;;12.70;99.90;;;;;;4978546;28;20393;-66
2023/08/08 01:58:02;;;;;;;0.73;0.70;;;12.70;99.90;;;;;;4974162;28;20027;-66
2023/08/08 02:00:27;;;;;;;2.13;1.00;;;12.60;99.90;;;;;;4979942;28;20092;-67
2023/08/08 02:02:53;;;;;;;4.10;1.10;;;12.50;99.90;;;;;;4977613;28;20474;-68
2023/08/08 02:05:18;;;;;;;1.30;1.10;;;12.60;99.90;;;;;;4983339;28;20383;-68
2023/08/08 02:07:44;;;;;;;4.87;1.10;;;12.60;99.90;;;;;;4980183;28;20041;-69
2023/08/08 02:10:09;;;;;;;2.93;1.47;;;12.70;99.90;;;;;;5001289;28;20072;-69
2023/08/08 02:12:35;;;;;;;6.97;1.20;;;12.50;99.90;;;;;;4990979;28;20045;-68
2023/08/08 02:15:01;;;;;;;1.60;1.00;;;12.40;99.90;;;;;;4983407;28;20039;-67
2023/08/08 02:17:27;;;;;;;1.57;0.90;;;12.40;99.90;;;;;;4980929;28;20057;-66
2023/08/08 02:19:53;;;;;;;3.28;1.27;;;12.30;99.90;;;;;;4981877;28;20058;-69
2023/08/08 02:22:19;;;;;;;5.00;1.30;;;12.30;99.90;;;;;;4979500;28;20057;-67
2023/08/08 02:24:44;;;;;;;9.05;2.22;;;12.20;99.90;;;;;;4982830;28;20069;-66
2023/08/08 02:27:11;;;;;;;3.93;1.10;;;12.10;99.90;;;;;;4980467;28;20034;-66
2023/08/08 02:29:37;;;;;;;2.25;1.05;;;12.00;99.90;;;;;;4978168;28;20062;-66
2023/08/08 02:32:03;;;;;;;2.83;1.27;;;12.00;99.90;;;;;;4979441;28;20074;-65
2023/08/08 02:34:29;;;;;;;3.15;1.00;;;12.10;99.90;;;;;;4976547;28;20046;-66
2023/08/08 02:36:54;;;;;;;1.43;0.90;;;12.00;99.90;;;;;;4977942;28;20574;-66
2023/08/08 02:39:20;;;;;;;1.80;1.20;;;11.90;99.90;;;;;;4984237;28;20025;-68
2023/08/08 02:41:45;;;;;;;2.60;1.27;;;12.00;99.90;;;;;;4978531;28;20022;-66
2023/08/08 02:44:11;;;;;;;2.20;1.10;;;12.00;99.90;;;;;;4977097;28;20031;-67
2023/08/08 02:46:37;;;;;;;3.97;1.30;;;12.00;99.90;;;;;;4974832;28;20026;-68
2023/08/08 02:49:04;;;;;;;1.80;1.10;;;12.00;99.90;;;;;;4977840;28;20566;-67
2023/08/08 02:51:29;;;;;;;2.95;1.23;;;12.00;99.90;;;;;;4977859;28;20042;-66
2023/08/08 02:53:55;;;;;;;2.17;1.20;;;12.00;99.90;;;;;;4975357;28;20402;-65
2023/08/08 02:56:21;;;;;;;2.10;1.30;;;12.00;99.90;;;;;;4977403;28;20054;-65
2023/08/08 02:58:46;;;;;;;2.47;1.13;;;12.00;99.90;;;;;;4982132;28;20022;-66
2023/08/08 03:01:15;;;;;;;3.00;1.10;;;12.10;99.90;;;;;;4980469;28;20527;-65
2023/08/08 03:03:41;;;;;;;4.32;1.77;;;11.90;99.90;;;;;;4978648;28;20037;-65
2023/08/08 03:06:07;;;;;;;1.30;1.10;;;11.90;99.90;;;;;;4975263;28;20023;-65
2023/08/08 03:08:33;;;;;;;3.60;1.13;;;11.90;99.90;;;;;;4977978;28;20283;-66
2023/08/08 03:10:58;;;;;;;1.70;1.00;;;12.00;99.90;;;;;;4978688;28;20030;-68
2023/08/08 03:13:24;;;;;;;2.33;1.00;;;12.00;99.90;;;;;;4980750;28;20038;-65
2023/08/08 03:15:49;;;;;;;3.67;1.10;;;11.90;99.90;;;;;;4982173;28;20072;-67
2023/08/08 03:18:15;;;;;;;3.13;1.10;;;11.80;99.90;;;;;;4979505;28;20045;-66
2023/08/08 03:20:41;;;;;;;2.00;1.13;;;11.60;99.90;;;;;;4975347;28;20026;-67
2023/08/08 03:23:07;;;;;;;2.70;1.30;;;11.70;99.90;;;;;;4985809;28;20035;-66
2023/08/08 03:25:32;;;;;;;2.13;1.27;;;11.70;99.90;;;;;;4988026;28;20048;-67
2023/08/08 03:27:58;;;;;;;6.63;1.50;;;11.70;99.90;;;;;;4977675;28;20289;-65
2023/08/08 03:30:24;;;;;;;2.03;1.37;;;11.60;99.90;;;;;;4981345;28;20121;-67
2023/08/08 03:32:50;;;;;;;1.92;1.10;;;11.60;99.90;;;;;;4987685;28;20047;-65
2023/08/08 03:35:16;;;;;;;3.88;1.30;;;11.50;99.90;;;;;;4980879;28;20022;-65
2023/08/08 03:37:42;;;;;;;4.30;1.50;;;11.40;99.90;;;;;;4978869;28;20461;-66
2023/08/08 03:40:08;;;;;;;1.75;1.25;;;11.40;99.90;;;;;;4977400;28;20059;-68
2023/08/08 03:42:34;;;;;;;2.05;1.27;;;11.30;99.90;;;;;;4987103;28;20399;-65
2023/08/08 03:45:00;;;;;;;4.10;1.13;;;11.30;99.90;;;;;;4983566;28;20031;-65
2023/08/08 03:47:26;;;;;;;1.70;1.48;;;11.50;99.90;;;;;;4983426;28;20041;-66
2023/08/08 03:49:54;;;;;;;2.80;1.87;;;11.40;99.90;;;;;;4979841;28;20042;-67
2023/08/08 03:52:21;;;;;;;2.47;1.48;;;11.30;99.90;;;;;;4995878;28;20583;-65
2023/08/08 03:54:46;;;;;;;2.42;1.23;;;11.40;99.90;;;;;;4987502;28;20101;-66
2023/08/08 03:57:13;;;;;;;3.30;1.27;;;11.30;99.90;;;;;;4993130;28;20113;-66
2023/08/08 03:59:38;;;;;;;1.30;1.10;;;11.30;99.90;;;;;;4977687;28;20055;-68
2023/08/08 04:02:04;;;;;;;2.43;1.33;;;11.40;99.90;;;;;;4980536;28;20417;-68
2023/08/08 04:04:30;;;;;;;1.60;1.30;;;11.40;99.90;;;;;;4976539;28;20547;-68
2023/08/08 04:06:55;;;;;;;4.57;1.63;;;11.20;99.90;;;;;;4977207;28;20088;-65
2023/08/08 04:09:21;;;;;;;2.03;1.10;;;11.20;99.90;;;;;;4980331;28;20036;-66
2023/08/08 04:11:46;;;;;;;4.07;1.33;;;11.20;99.90;;;;;;4978859;28;20520;-68
2023/08/08 04:14:12;;;;;;;1.70;1.20;;;11.20;99.90;;;;;;4979728;28;20100;-65
2023/08/08 04:16:39;;;;;;;5.57;1.40;;;11.30;99.90;;;;;;4982671;28;20026;-65
2023/08/08 04:19:05;;;;;;;4.38;1.50;;;11.30;99.90;;;;;;4985905;28;20034;-66
2023/08/08 04:21:32;;;;;;;2.87;1.40;;;11.30;99.90;;;;;;4975391;28;20035;-68
2023/08/08 04:23:58;;;;;;;1.30;1.20;;;11.40;99.90;;;;;;4979783;28;20045;-68
2023/08/08 04:26:23;;;;;;;3.85;1.40;;;11.20;99.90;;;;;;4983202;28;20114;-66
2023/08/08 04:28:50;;;;;;;2.73;1.40;;;11.30;99.90;;;;;;4994073;28;20121;-69
2023/08/08 04:31:17;;;;;;;3.75;1.45;;;11.20;99.90;;;;;;4983566;28;20026;-68
2023/08/08 04:33:43;;;;;;;3.70;1.50;;;11.20;99.90;;;;;;4983551;28;20038;-65
2023/08/08 04:36:09;;;;;;;11.83;1.90;;;11.20;99.90;;;;;;4993958;28;20033;-67
2023/08/08 04:38:34;;;;;;;2.77;1.30;;;11.20;99.90;;;;;;4993306;28;20091;-66
2023/08/08 04:41:00;;;;;;;2.37;1.57;;;11.10;99.90;;;;;;4983643;28;20080;-67
2023/08/08 04:43:27;;;;;;;4.03;1.33;;;11.10;99.90;;;;;;4991983;28;20033;-65
2023/08/08 04:45:53;;;;;;;4.40;1.30;;;11.00;99.90;;;;;;4979982;28;20044;-67
2023/08/08 04:48:19;;;;;;;2.90;1.38;;;11.00;99.90;;;;;;4991474;28;20035;-65
2023/08/08 04:50:48;;;;;;;3.38;1.85;;;11.20;99.90;;;;;;4983615;28;20022;-67
2023/08/08 04:53:14;;;;;;;2.22;1.48;;;11.20;99.90;;;;;;4978171;28;20099;-68
2023/08/08 04:55:39;;;;;;;4.20;1.77;;;11.20;99.90;;;;;;4990705;28;20031;-65
2023/08/08 04:58:05;;;;;;;3.83;1.33;;;11.10;99.90;;;;;;4986345;28;20031;-65
2023/08/08 05:00:31;;;;;;;3.50;1.30;;;11.20;99.90;;;;;;4987926;28;20688;-68
2023/08/08 05:02:56;;;;;;;3.47;1.40;;;11.20;99.90;;;;;;4978827;28;20035;-67
2023/08/08 05:05:22;;;;;;;2.90;1.50;;;11.10;99.90;;;;;;4985506;28;20038;-65
2023/08/08 05:07:48;;;;;;;3.13;1.53;;;11.00;99.90;;;;;;4979450;28;20076;-65
2023/08/08 05:10:13;;;;;;;3.77;1.40;;;11.10;99.90;;;;;;4984326;28;20431;-67
2023/08/08 05:12:39;;;;;;;5.07;1.53;;;11.00;99.90;;;;;;4979141;28;20070;-65
2023/08/08 05:15:05;;;;;;;3.78;1.60;;;11.10;99.90;;;;;;4981586;28;20103;-65
2023/08/08 05:17:34;;;;;;;4.88;1.48;;;11.10;99.90;;;;;;4983823;28;20105;-65
2023/08/08 05:20:00;;;;;;;4.45;1.60;;;11.10;99.90;;;;;;4982811;28;20022;-66
2023/08/08 05:22:26;;;;;;;1.83;1.40;;;11.30;99.90;;;;;;4988556;28;20118;-68
2023/08/08 05:24:51;;;;;;;1.65;1.33;;;11.40;99.90;;;;;;4976388;28;20026;-65
2023/08/08 05:27:17;;;;;;;2.47;1.40;;;11.60;99.90;;;;;;4980490;28;20423;-65
2023/08/08 05:29:42;;;;;;;2.70;1.40;;;11.60;99.90;;;;;;4987538;28;20039;-68
2023/08/08 05:32:08;;;;;;;4.60;1.87;;;11.70;99.90;;;;;;4978125;28;20092;-67
2023/08/08 05:34:34;;;;;;;3.67;1.97;;;11.70;99.90;;;;;;4981087;28;20076;-67
2023/08/08 05:37:00;;;;;;;3.42;1.48;;;11.70;99.90;;;;;;4982804;28;20034;-67
2023/08/08 05:39:25;;;;;;;3.10;1.50;;;11.50;99.90;;;;;;4982836;28;20043;-63
2023/08/08 05:41:52;;;;;;;3.00;1.83;;;11.70;99.90;;;;;;4987811;28;20455;-65
2023/08/08 05:44:17;;;;;;;2.97;1.80;;;11.90;99.90;;;;;;4986936;28;20092;-65
2023/08/08 05:46:43;;;;;;;6.23;1.83;;;12.70;99.90;;;;;;4978972;28;20034;-66
2023/08/08 05:49:09;;;;;;;3.37;2.53;;;13.60;99.90;;;;;;4979518;28;20027;-65
2023/08/08 05:51:34;;;;;;;5.27;1.90;;;16.20;95.80;;;;;;4978145;28;20064;-66
2023/08/08 05:54:00;;;;;;;4.47;1.50;;;17.10;90.30;;;;;;4981829;28;20038;-67
2023/08/08 05:56:34;;;;;;;3.87;2.07;;;16.40;90.30;;;;;;4977516;28;20066;-66
2023/08/08 05:59:01;;;;;;;2.15;1.50;;;18.20;86.50;;;;;;4978060;28;20128;-66
2023/08/08 06:01:26;;;;;;;2.30;1.70;;;17.70;84.10;;;;;;4981753;28;20070;-67
2023/08/08 06:03:52;;;;;;;7.67;2.30;;;18.20;82.90;;;;;;4981286;28;20396;-67
2023/08/08 06:06:18;;;;;;;6.63;1.38;;;19.10;79.90;;;;;;4982077;28;20064;-67
2023/08/08 06:08:44;;;;;;;1.88;1.27;;;18.50;78.80;;;;;;4978113;28;20035;-67
2023/08/08 06:11:09;;;;;;;1.47;1.17;;;17.80;80.40;;;;;;4988032;28;20034;-68
2023/08/08 06:13:36;;;;;;;6.10;1.90;;;16.80;85.60;;;;;;4978781;28;20172;-69
2023/08/08 06:16:06;;;;;;;2.20;1.45;;;15.30;90.60;;;;;;4982756;28;20103;-68
2023/08/08 06:18:34;;;;;;;3.60;1.15;;;15.50;92.40;;;;;;4979303;28;20034;-67
2023/08/08 06:21:00;;;;;;;4.10;1.42;;;14.20;94.20;;;;;;4979511;28;20041;-69
2023/08/08 06:23:26;;;;;;;2.90;1.23;;;14.60;95.50;;;;;;4984514;28;20474;-66
2023/08/08 06:25:51;;;;;;;2.23;1.37;;;14.40;95.40;;;;;;4977400;28;20340;-69
2023/08/08 06:28:17;;;;;;;3.10;1.20;;;14.20;96.20;;;;;;4978374;28;20505;-69
2023/08/08 06:30:43;;;;;;;3.17;1.33;;;14.50;96.20;;;;;;4981591;28;20133;-71
2023/08/08 06:33:08;;;;;;;4.00;1.20;;;14.30;96.60;;;;;;4987969;28;20046;-71
2023/08/08 06:35:34;;;;;;;5.07;1.20;;;14.80;96.00;;;;;;4998807;28;20514;-71
2023/08/08 06:38:00;;;;;;;3.08;1.33;;;14.70;95.70;;;;;;4988527;28;20066;-70
2023/08/08 06:40:25;;;;;;;3.60;1.50;;;14.90;96.20;;;;;;4980356;28;20528;-71
2023/08/08 06:42:51;;;;;;;5.53;1.23;;;15.40;95.20;;;;;;4980678;28;20176;-69
2023/08/08 06:45:17;;;;;;;3.63;1.30;;;15.40;94.60;;;;;;4975206;28;20033;-68
2023/08/08 06:47:42;;;;;;;3.40;1.13;;;16.00;95.10;;;;;;4975769;28;20042;-69
2023/08/08 06:50:08;;;;;;;8.00;1.30;;;16.50;93.20;;;;;;4978171;28;20043;-69
2023/08/08 06:52:34;;;;;;;2.72;1.42;;;17.30;92.00;;;;;;4974431;28;20096;-67
2023/08/08 06:55:00;;;;;;;5.83;1.37;;;17.70;88.20;;;;;;4977251;28;20528;-70
2023/08/08 06:57:25;;;;;;;3.30;1.40;;;17.90;86.00;;;;;;4982022;28;20038;-70
2023/08/08 06:59:52;;;;;;;17.20;1.53;;;17.10;88.40;;;;;;4977160;28;20468;-69
2023/08/08 07:02:21;;;;;;;4.15;1.30;;;16.70;90.10;;;;;;4974038;28;20034;-69
2023/08/08 07:04:47;;;;;;;4.55;1.48;;;16.60;90.90;;;;;;4983364;28;20038;-69
2023/08/08 07:07:12;;;;;;;2.50;1.43;;;16.50;90.70;;;;;;4986925;28;20804;-69
2023/08/08 07:09:38;;;;;;;7.67;1.90;;;16.50;91.20;;;;;;4980693;28;20038;-69
2023/08/08 07:12:04;;;;;;;6.72;1.58;;;16.60;90.90;;;;;;4978409;28;20038;-69
2023/08/08 07:14:30;;;;;;;6.07;1.20;;;16.60;91.50;;;;;;4978921;28;20062;-70
2023/08/08 07:16:56;;;;;;;3.80;1.50;;;16.60;90.80;;;;;;4982071;28;20297;-68
2023/08/08 07:19:22;;;;;;;10.73;1.50;;;16.80;90.70;;;;;;4971722;28;20113;-69
2023/08/08 07:21:48;;;;;;;3.22;1.50;;;16.90;90.40;;;;;;4974957;28;20042;-69
2023/08/08 07:24:13;;;;;;;6.90;1.60;;;16.90;90.60;;;;;;4982913;28;20034;-77
2023/08/08 07:26:39;;;;;;;6.10;1.50;;;17.00;90.10;;;;;;4994538;28;20042;-74
2023/08/08 07:29:07;;;;;;;4.65;1.48;;;16.90;90.90;;;;;;4982854;28;20027;-75
2023/08/08 07:31:33;;;;;;;4.25;1.55;;;16.90;90.90;;;;;;4982236;28;20043;-73
2023/08/08 07:33:59;;;;;;;3.67;1.57;;;16.80;90.60;;;;;;4980537;28;20033;-75
2023/08/08 07:36:25;;;;;;;7.30;1.97;;;16.80;90.80;;;;;;4984203;28;20041;-74
2023/08/08 07:38:50;;;;;;;6.35;1.80;;;16.80;91.10;;;;;;4990490;28;20165;-73
2023/08/08 07:41:17;;;;;;;5.20;2.17;;;16.90;91.20;;;;;;4976705;28;20112;-75
2023/08/08 07:43:43;;;;;;;4.50;1.45;;;17.00;91.50;;;;;;4977993;28;20031;-74
2023/08/08 07:46:09;;;;;;;2.93;1.30;;;17.10;90.50;;;;;;4993783;28;20037;-72
2023/08/08 07:48:35;;;;;;;3.90;1.50;;;17.40;89.20;;;;;;4981063;28;20034;-77
2023/08/08 07:51:00;;;;;;;5.43;1.57;;;19.00;83.30;;;;;;4991610;28;20066;-77
2023/08/08 07:53:26;;;;;;;4.40;2.70;;;18.80;82.40;;;;;;4981328;28;20532;-73
2023/08/08 07:55:51;;;;;;;13.90;2.97;;;19.10;80.50;;;;;;4980482;28;20022;-76
2023/08/08 07:58:17;;;;;;;2.63;1.40;;;19.60;79.60;;;;;;4976046;28;20394;-77
2023/08/08 08:00:44;;;;;;;4.10;1.13;;;19.90;77.70;;;;;;4976178;28;20042;-77
2023/08/08 08:03:09;;;;;;;56.63;8.70;;;20.20;76.20;;;;;;4980615;28;20034;-76
2023/08/08 08:05:36;;;;;;;23.93;4.37;;;20.70;75.40;;;;;;4984170;28;20039;-73
2023/08/08 08:08:01;;;;;;;7.03;2.65;;;21.10;73.90;;;;;;4980034;28;20030;-72
2023/08/08 08:10:27;;;;;;;5.60;1.70;;;21.30;71.40;;;;;;4983162;28;20133;-71
2023/08/08 08:12:57;;;;;;;4.67;1.70;;;21.70;72.00;;;;;;4980740;28;20085;-72
2023/08/08 08:15:24;;;;;;;3.05;1.50;;;21.80;72.30;;;;;;4988158;28;20027;-73
2023/08/08 08:17:49;;;;;;;;;;;22.00;68.50;;;;;;4984197;28;20027;-73
2023/08/08 08:20:15;;;;;;;4.32;1.40;;;21.50;69.40;;;;;;4981021;28;20233;-74
2023/08/08 08:22:41;;;;;;;2.87;1.30;;;22.00;70.40;;;;;;4980910;28;20378;-73
2023/08/08 08:25:09;;;;;;;4.63;1.90;;;22.60;68.50;;;;;;4990864;28;20035;-73
2023/08/08 08:27:35;;;;;;;4.68;1.60;;;23.40;66.30;;;;;;4996843;28;20089;-73
2023/08/08 08:30:01;;;;;;;4.60;1.92;;;23.80;65.40;;;;;;4978226;28;20018;-73
2023/08/08 08:32:27;;;;;;;1.97;1.67;;;23.30;64.40;;;;;;4982869;28;20049;-73
2023/08/08 08:34:52;;;;;;;2.10;1.57;;;23.40;64.90;;;;;;4991197;28;20552;-72
2023/08/08 08:37:18;;;;;;;3.33;1.53;;;23.50;63.30;;;;;;4981809;28;20027;-72
2023/08/08 08:39:43;;;;;;;4.80;1.30;;;23.40;64.50;;;;;;4991548;28;20031;-72
2023/08/08 08:42:12;;;;;;;7.17;1.63;;;23.70;63.80;;;;;;4982257;28;20113;-72
2023/08/08 08:44:40;;;;;;;4.75;1.70;;;23.50;63.30;;;;;;4983940;28;20537;-68
2023/08/08 08:47:10;;;;;;;5.85;1.45;;;23.80;63.00;;;;;;4979203;28;20521;-69
2023/08/08 08:49:38;;;;;;;1.48;1.27;;;23.80;62.30;;;;;;4981365;28;20533;-68
2023/08/08 08:52:05;;;;;;;3.63;1.50;;;23.70;63.80;;;;;;4977405;28;20039;-68
2023/08/08 08:54:32;;;;;;;3.40;1.35;;;23.80;64.90;;;;;;4980549;28;20030;-68
2023/08/08 08:56:58;;;;;;;1.48;1.23;;;23.60;64.70;;;;;;4976335;28;20027;-68
2023/08/08 08:59:24;;;;;;;;;;;23.10;65.30;;;;;;4976581;28;20031;-68
2023/08/08 09:01:51;;;;;;;3.45;1.25;;;23.20;64.80;;;;;;4979344;28;19910;-67
2023/08/08 09:04:19;;;;;;;;;;;23.10;63.60;;;;;;4981162;28;20379;-68
2023/08/08 09:06:45;;;;;;;2.58;1.20;;;23.30;63.20;;;;;;4980960;28;19905;-68
2023/08/08 09:09:12;;;;;;;4.57;1.48;;;23.10;64.00;;;;;;4980896;28;20030;-68
2023/08/08 09:11:39;;;;;;;3.20;1.52;;;23.20;63.20;;;;;;4988061;28;20034;-68
2023/08/08 09:14:18;;;;;;;2.92;1.15;;;23.50;64.10;;;;;;4980892;28;20465;-68
2023/08/08 09:16:46;;;;;;;6.90;2.25;;;23.60;62.70;;;;;;4979567;28;20132;-68
2023/08/08 09:19:12;;;;;;;2.53;1.27;;;23.70;61.50;;;;;;4980277;28;20064;-68
2023/08/08 09:21:38;;;;;;;3.05;1.10;;;24.10;62.90;;;;;;4979322;28;20409;-68
2023/08/08 09:24:04;;;;;;;3.27;1.27;;;24.20;60.10;;;;;;4981743;28;20125;-68
2023/08/08 09:26:30;;;;;;;1.60;1.10;;;24.60;60.90;;;;;;4980659;28;20077;-68
2023/08/08 09:28:56;;;;;;;1.00;0.90;;;25.60;59.90;;;;;;4977009;28;20072;-68
2023/08/08 09:31:24;;;;;;;;;;;26.30;58.80;;;;;;4982300;28;20031;-68
2023/08/08 09:33:51;;;;;;;7.32;1.30;;;27.60;56.80;;;;;;4981685;28;20345;-67
2023/08/08 09:36:17;;;;;;;4.88;1.17;;;28.00;55.80;;;;;;4977537;28;20030;-68
2023/08/08 09:38:42;;;;;;;1.15;1.05;;;31.40;51.80;;;;;;4974521;28;20465;-68
2023/08/08 09:41:08;;;;;;;5.45;1.20;;;35.40;47.00;;;;;;4979430;28;20042;-68
2023/08/08 09:43:34;;;;;;;3.75;1.30;;;37.00;45.00;;;;;;4981216;28;20038;-68
2023/08/08 09:46:00;;;;;;;2.90;1.35;;;38.10;42.80;;;;;;4981095;28;20027;-68
2023/08/08 09:48:32;;;;;;;6.45;1.17;;;39.00;40.00;;;;;;4974124;28;20038;-68
2023/08/08 09:50:59;;;;;;;2.38;1.17;;;37.50;42.80;;;;;;4977625;28;20130;-68
2023/08/08 09:53:27;;;;;;;3.88;1.17;;;37.80;41.60;;;;;;4980881;28;20041;-68
2023/08/08 09:55:55;;;;;;;1.73;1.00;;;37.50;41.10;;;;;;4978135;28;20446;-68
2023/08/08 09:58:21;;;;;;;3.15;1.00;;;35.60;40.80;;;;;;4977396;28;20033;-69
2023/08/08 10:00:49;;;;;;;2.08;0.93;;;34.30;42.20;;;;;;4979928;28;20385;-69
2023/08/08 10:03:16;;;;;;;3.63;1.00;;;34.20;44.00;;;;;;4978244;28;20023;-69
2023/08/08 10:05:41;;;;;;;1.92;0.93;;;35.30;43.30;;;;;;4973245;28;20031;-67
2023/08/08 10:08:07;;;;;;;;;;;37.20;41.00;;;;;;4973933;28;20477;-67
2023/08/08 10:10:34;;;;;;;1.42;0.88;;;38.60;40.30;;;;;;4984904;28;19914;-68
2023/08/08 10:13:00;;;;;;;4.35;1.20;;;39.50;39.30;;;;;;4980345;28;20042;-68
2023/08/08 10:15:29;;;;;;;7.10;1.10;;;40.70;38.10;;;;;;4977625;28;20176;-69
2023/08/08 10:17:57;;;;;;;6.00;1.25;;;40.70;38.90;;;;;;4983837;28;20062;-68
2023/08/08 10:20:24;;;;;;;3.03;0.90;;;41.30;38.70;;;;;;4979451;28;20029;-68
2023/08/08 10:22:54;;;;;;;1.70;1.20;;;39.80;39.50;;;;;;4981846;28;20033;-68
2023/08/08 10:25:27;;;;;;;3.17;0.95;;;37.90;40.40;;;;;;4975889;28;20045;-68
2023/08/08 10:28:08;;;;;;;1.30;0.80;;;36.00;40.50;;;;;;4978440;28;20034;-69
2023/08/08 10:30:43;;;;;;;2.60;1.20;;;34.40;40.90;;;;;;4981906;28;20504;-68
2023/08/08 10:33:23;;;;;;;4.35;0.98;;;33.40;44.50;;;;;;4977208;28;20042;-68
2023/08/08 10:35:57;;;;;;;12.32;2.40;;;32.90;44.60;;;;;;4976121;28;20524;-68
2023/08/08 10:38:27;;;;;;;1.75;1.00;;;32.60;46.00;;;;;;4981740;28;20038;-68
2023/08/08 10:40:59;;;;;;;2.70;1.00;;;37.30;43.20;;;;;;4978741;28;20026;-68
2023/08/08 10:43:27;;;;;;;1.15;0.95;;;38.70;38.00;;;;;;4969892;28;20085;-68
2023/08/08 10:45:58;;;;;;;2.55;1.10;;;38.20;39.70;;;;;;4971716;28;20030;-68
2023/08/08 10:48:23;;;;;;;6.63;1.15;;;33.30;45.50;;;;;;4978852;28;20042;-69
2023/08/08 10:50:50;;;;;;;6.07;1.42;;;31.20;45.40;;;;;;4987604;28;20465;-68
2023/08/08 10:53:15;;;;;;;1.73;0.90;;;30.10;47.50;;;;;;4979657;28;20035;-70
2023/08/08 10:55:44;;;;;;;1.60;1.10;;;28.00;50.70;;;;;;4976267;28;20490;-68
2023/08/08 10:58:15;;;;;;;4.50;1.10;;;27.80;53.40;;;;;;4974529;28;20077;-68
2023/08/08 11:00:41;;;;;;;1.90;1.25;;;27.60;52.40;;;;;;4979474;28;20087;-69
2023/08/08 11:03:07;;;;;;;1.30;1.00;;;27.50;51.10;;;;;;4975083;28;20026;-68
2023/08/08 11:05:34;;;;;;;3.15;1.17;;;27.10;54.90;;;;;;4983284;28;20034;-68
2023/08/08 11:08:01;;;;;;;1.83;1.05;;;27.20;53.00;;;;;;4972244;28;20113;-68
2023/08/08 11:10:32;;;;;;;1.75;0.90;;;27.40;54.70;;;;;;4975957;28;20019;-68
2023/08/08 11:13:03;;;;;;;2.13;0.85;;;27.40;53.70;;;;;;4972227;28;20121;-68
2023/08/08 11:15:29;;;;;;;1.92;1.00;;;27.50;53.70;;;;;;4979060;28;20030;-68
2023/08/08 11:17:55;;;;;;;;;;;27.20;57.50;;;;;;4979806;28;20115;-68
2023/08/08 11:20:25;;;;;;;0.90;0.65;;;27.00;52.80;;;;;;4984721;28;19913;-68
2023/08/08 11:22:55;;;;;;;7.53;1.67;;;27.10;51.60;;;;;;4975737;28;20458;-68
2023/08/08 11:25:21;;;;;;;4.25;1.05;;;27.00;52.30;;;;;;4979941;28;20035;-68
2023/08/08 11:27:53;;;;;;;;;;;26.80;52.70;;;;;;4982979;28;20525;-68
2023/08/08 11:30:20;;;;;;;1.65;0.90;;;27.00;53.10;;;;;;4975380;28;19961;-68
2023/08/08 11:32:47;;;;;;;3.80;0.73;;;27.20;53.60;;;;;;4982007;28;20046;-68
2023/08/08 11:35:17;;;;;;;1.73;0.90;;;27.20;50.60;;;;;;4982277;28;20030;-68
2023/08/08 11:37:45;;;;;;;2.17;0.95;;;27.00;52.40;;;;;;4977779;28;20121;-68
2023/08/08 11:40:12;;;;;;;1.50;0.75;;;27.20;51.80;;;;;;4982938;28;20026;-68
2023/08/08 11:42:38;;;;;;;2.55;0.80;;;27.10;50.70;;;;;;4983783;28;20026;-67
2023/08/08 11:45:04;;;;;;;3.53;1.10;;;27.10;54.30;;;;;;4983256;28;20026;-67
2023/08/08 11:47:35;;;;;;;1.67;1.02;;;27.20;52.30;;;;;;4981547;28;20026;-68
2023/08/08 11:50:03;;;;;;;2.13;0.90;;;27.20;54.00;;;;;;4983108;28;20034;-68
2023/08/08 11:52:30;;;;;;;2.45;0.85;;;27.20;53.30;;;;;;4978535;28;20049;-68
2023/08/08 11:54:57;;;;;;;1.70;0.98;;;26.80;52.50;;;;;;4981927;28;20408;-68
2023/08/08 11:57:23;;;;;;;2.35;0.90;;;26.70;52.60;;;;;;4981334;28;20038;-67
2023/08/08 11:59:49;;;;;;;1.73;0.95;;;26.90;52.60;;;;;;4985481;28;20031;-68
2023/08/08 12:02:15;;;;;;;1.67;1.02;;;26.90;56.70;;;;;;4985203;28;20026;-68
2023/08/08 12:04:46;;;;;;;1.30;0.80;;;27.10;52.60;;;;;;4983053;28;20022;-68
2023/08/08 12:07:12;;;;;;;3.63;0.90;;;26.90;55.00;;;;;;4977048;28;20050;-67
2023/08/08 12:09:37;;;;;;;1.67;0.82;;;26.90;51.50;;;;;;4983963;28;20852;-68
2023/08/08 12:12:04;;;;;;;1.92;1.15;;;26.20;54.60;;;;;;4984089;28;20398;-68
2023/08/08 12:14:29;;;;;;;;;;;26.50;54.20;;;;;;4975754;28;20106;-68
2023/08/08 12:16:55;;;;;;;2.08;0.93;;;26.00;55.10;;;;;;4979976;28;20448;-68
2023/08/08 12:19:25;;;;;;;1.30;0.60;;;26.70;54.20;;;;;;4983292;28;20071;-69
2023/08/08 12:21:51;;;;;;;3.42;0.90;;;27.20;54.10;;;;;;4979973;28;20091;-68
2023/08/08 12:24:20;;;;;;;3.70;1.30;;;27.30;54.80;;;;;;4982019;28;20029;-69
2023/08/08 12:26:46;;;;;;;2.53;0.85;;;27.20;55.50;;;;;;4979317;28;20113;-68
2023/08/08 12:29:12;;;;;;;4.13;0.90;;;27.20;53.20;;;;;;4983927;28;20109;-68
2023/08/08 12:31:39;;;;;;;1.42;0.93;;;26.90;51.80;;;;;;4981942;28;20038;-68
2023/08/08 12:34:04;;;;;;;;;;;27.10;51.20;;;;;;4981268;28;20034;-68
2023/08/08 12:36:30;;;;;;;4.57;1.55;;;27.00;53.30;;;;;;4983260;28;19912;-67
2023/08/08 12:38:56;;;;;;;1.17;0.70;;;26.70;50.70;;;;;;4981989;28;20137;-68
2023/08/08 12:41:24;;;;;;;1.27;0.80;;;26.60;53.60;;;;;;4975960;28;20113;-68
2023/08/08 12:43:50;;;;;;;2.97;1.00;;;26.90;50.90;;;;;;4980749;28;20036;-67